Time,TemperatureF,DewpointF,PressureIn,WindDirection,WindDirectionDegrees,WindSpeedMPH,WindSpeedGustMPH,Humidity,HourlyPrecipIn,Conditions,Clouds,dailyrainin,SoftwareType,DateUTC
2013-07-14 00:04:00,72.1,53.0,30.06,WSW,246,25.7,25.7,51,0.00,,---,0.00,VWS V14.01,2013-07-14 06:04:00,
2013-07-14 00:09:00,72.1,53.0,30.06,West,277,23.7,23.7,51,0.00,,---,0.00,VWS V14.01,2013-07-14 06:09:00,
2013-07-14 00:15:00,70.9,55.4,30.03,West,266,34.9,34.9,58,0.00,,---,0.00,VWS V14.01,2013-07-14 06:15:00,
2013-07-14 00:21:00,70.3,56.3,30.03,West,267,27.5,27.5,61,0.00,,---,0.00,VWS V14.01,2013-07-14 06:21:00,
2013-07-14 00:26:00,70.2,56.5,30.03,West,278,22.8,27.5,62,0.00,,---,0.00,VWS V14.01,2013-07-14 06:26:00,
2013-07-14 00:31:00,69.8,56.7,30.03,WNW,288,26.2,26.2,63,0.00,,---,0.00,VWS V14.01,2013-07-14 06:31:00,
2013-07-14 00:36:00,69.8,56.7,30.03,West,275,21.0,22.8,63,0.00,,---,0.00,VWS V14.01,2013-07-14 06:36:00,
2013-07-14 00:41:00,69.8,56.7,30.00,West,270,23.3,23.3,63,0.00,,---,0.00,VWS V14.01,2013-07-14 06:41:00,
2013-07-14 00:46:00,69.3,55.7,30.00,WNW,296,23.7,26.2,62,0.00,,---,0.00,VWS V14.01,2013-07-14 06:46:00,
2013-07-14 00:52:00,69.3,55.7,30.00,WNW,293,27.5,27.5,62,0.00,,---,0.00,VWS V14.01,2013-07-14 06:52:00,
2013-07-14 00:57:00,69.3,55.2,30.00,West,280,20.1,22.4,61,0.00,,---,0.00,VWS V14.01,2013-07-14 06:57:00,
2013-07-14 01:03:00,69.3,55.2,30.03,WNW,287,15.4,18.3,61,0.00,,---,0.00,VWS V14.01,2013-07-14 07:03:00,
2013-07-14 01:08:00,69.6,54.7,30.03,WNW,282,15.9,15.9,59,0.00,,---,0.00,VWS V14.01,2013-07-14 07:08:00,
2013-07-14 01:14:00,69.6,54.7,30.03,WSW,258,12.8,12.8,59,0.00,,---,0.00,VWS V14.01,2013-07-14 07:14:00,
2013-07-14 01:19:00,69.8,54.8,30.03,South,182,15.4,15.4,59,0.00,,---,0.00,VWS V14.01,2013-07-14 07:19:00,
2013-07-14 01:25:00,70.3,54.9,30.06,SSW,199,12.8,12.8,58,0.00,,---,0.00,VWS V14.01,2013-07-14 07:25:00,
2013-07-14 01:31:00,70.9,53.9,30.06,SW,216,11.9,13.2,55,0.00,,---,0.00,VWS V14.01,2013-07-14 07:31:00,
2013-07-14 01:36:00,70.9,53.4,30.06,SW,215,21.5,21.5,54,0.00,,---,0.00,VWS V14.01,2013-07-14 07:36:00,
2013-07-14 01:42:00,70.9,53.4,30.09,WSW,240,13.2,13.2,54,0.00,,---,0.00,VWS V14.01,2013-07-14 07:42:00,
2013-07-14 01:47:00,70.9,53.4,30.09,West,259,16.8,16.8,54,0.00,,---,0.00,VWS V14.01,2013-07-14 07:47:00,
2013-07-14 01:53:00,70.9,53.4,30.09,WNW,284,16.3,16.3,54,0.00,,---,0.00,VWS V14.01,2013-07-14 07:53:00,
2013-07-14 01:58:00,72.5,48.8,30.09,West,279,16.8,16.8,43,0.00,,---,0.00,VWS V14.01,2013-07-14 07:58:00,
2013-07-14 02:04:00,72.9,48.5,30.09,West,272,16.8,16.8,42,0.00,,---,0.00,VWS V14.01,2013-07-14 08:04:00,
2013-07-14 02:09:00,73.4,48.3,30.03,WSW,257,13.2,16.3,41,0.00,,---,0.00,VWS V14.01,2013-07-14 08:09:00,
2013-07-14 02:14:00,73.4,48.3,30.03,West,273,15.0,15.0,41,0.00,,---,0.00,VWS V14.01,2013-07-14 08:14:00,
2013-07-14 02:20:00,73.4,48.3,30.03,West,281,11.0,11.9,41,0.00,,---,0.00,VWS V14.01,2013-07-14 08:20:00,
2013-07-14 02:25:00,73.2,48.1,30.00,WNW,286,15.0,15.0,41,0.00,,---,0.00,VWS V14.01,2013-07-14 08:25:00,
2013-07-14 02:31:00,73.2,48.1,30.00,West,273,14.5,14.5,41,0.00,,---,0.00,VWS V14.01,2013-07-14 08:31:00,
2013-07-14 02:36:00,73.2,48.1,30.00,WNW,286,15.0,15.4,41,0.00,,---,0.00,VWS V14.01,2013-07-14 08:36:00,
2013-07-14 02:42:00,72.5,49.4,30.03,West,277,13.6,14.5,44,0.00,,---,0.00,VWS V14.01,2013-07-14 08:42:00,
2013-07-14 02:47:00,72.5,49.4,30.03,West,271,14.1,14.1,44,0.00,,---,0.00,VWS V14.01,2013-07-14 08:47:00,
2013-07-14 02:53:00,72.5,49.4,30.03,NW,305,12.8,16.8,44,0.00,,---,0.00,VWS V14.01,2013-07-14 08:53:00,
2013-07-14 02:59:00,72.1,49.7,30.03,WNW,292,17.0,17.0,45,0.00,,---,0.00,VWS V14.01,2013-07-14 08:59:00,
2013-07-14 03:04:00,72.3,49.2,30.03,WNW,288,18.8,18.8,44,0.00,,---,0.00,VWS V14.01,2013-07-14 09:04:00,
2013-07-14 03:10:00,72.3,49.2,30.03,NW,305,18.8,18.8,44,0.00,,---,0.00,VWS V14.01,2013-07-14 09:10:00,
2013-07-14 03:16:00,72.3,49.2,30.03,WNW,300,15.0,15.0,44,0.00,,---,0.00,VWS V14.01,2013-07-14 09:16:00,
2013-07-14 03:21:00,72.3,49.2,30.03,NW,305,10.1,13.2,44,0.00,,---,0.00,VWS V14.01,2013-07-14 09:21:00,
2013-07-14 03:27:00,72.3,49.2,30.03,WSW,238,8.3,8.3,44,0.00,,---,0.00,VWS V14.01,2013-07-14 09:27:00,
2013-07-14 03:32:00,72.1,49.7,30.03,SSW,193,8.7,8.7,45,0.00,,---,0.00,VWS V14.01,2013-07-14 09:32:00,
2013-07-14 03:38:00,72.1,49.7,30.03,SW,225,5.8,5.8,45,0.00,,---,0.00,VWS V14.01,2013-07-14 09:38:00,
2013-07-14 03:44:00,71.6,50.3,30.03,SW,218,6.3,6.3,47,0.00,,---,0.00,VWS V14.01,2013-07-14 09:44:00,
2013-07-14 03:49:00,71.4,50.7,30.03,SW,226,5.8,6.3,48,0.00,,---,0.00,VWS V14.01,2013-07-14 09:49:00,
2013-07-14 03:54:00,71.4,51.3,30.03,SW,216,3.1,3.1,49,0.00,,---,0.00,VWS V14.01,2013-07-14 09:54:00,
2013-07-14 03:59:00,71.1,51.0,30.03,WSW,238,5.4,5.4,49,0.00,,---,0.00,VWS V14.01,2013-07-14 09:59:00,
2013-07-14 04:04:00,71.1,51.0,30.03,WSW,251,8.3,8.3,49,0.00,,---,0.00,VWS V14.01,2013-07-14 10:04:00,
2013-07-14 04:10:00,71.1,51.0,30.03,WSW,248,8.7,8.7,49,0.00,,---,0.00,VWS V14.01,2013-07-14 10:10:00,
2013-07-14 04:16:00,70.5,51.5,30.03,West,265,8.3,8.3,51,0.00,,---,0.00,VWS V14.01,2013-07-14 10:16:00,
2013-07-14 04:21:00,70.3,51.9,30.03,WNW,285,10.5,10.5,52,0.00,,---,0.00,VWS V14.01,2013-07-14 10:21:00,
2013-07-14 04:27:00,70.3,51.9,30.03,WNW,285,11.9,11.9,52,0.00,,---,0.00,VWS V14.01,2013-07-14 10:27:00,
2013-07-14 04:33:00,70.0,53.6,30.03,West,272,10.5,11.0,56,0.00,,---,0.00,VWS V14.01,2013-07-14 10:33:00,
2013-07-14 04:38:00,70.2,53.8,30.03,WNW,288,8.3,10.1,56,0.00,,---,0.00,VWS V14.01,2013-07-14 10:38:00,
2013-07-14 04:44:00,70.0,53.1,30.03,WNW,295,11.0,11.0,55,0.00,,---,0.00,VWS V14.01,2013-07-14 10:44:00,
2013-07-14 04:49:00,70.0,53.1,30.03,WNW,293,10.5,11.4,55,0.00,,---,0.00,VWS V14.01,2013-07-14 10:49:00,
2013-07-14 04:55:00,70.0,53.1,30.03,WNW,298,8.3,8.3,55,0.00,,---,0.00,VWS V14.01,2013-07-14 10:55:00,
2013-07-14 05:00:00,70.0,53.1,30.03,NW,316,8.3,8.3,55,0.00,,---,0.00,VWS V14.01,2013-07-14 11:00:00,
2013-07-14 05:06:00,70.0,53.1,30.03,WNW,301,8.1,8.1,55,0.00,,---,0.00,VWS V14.01,2013-07-14 11:06:00,
2013-07-14 05:12:00,70.0,53.1,30.03,NW,326,8.7,8.7,55,0.00,,---,0.00,VWS V14.01,2013-07-14 11:12:00,
2013-07-14 05:17:00,70.0,53.1,30.03,NW,326,13.2,13.2,55,0.00,,---,0.00,VWS V14.01,2013-07-14 11:17:00,
2013-07-14 05:23:00,69.6,53.2,30.03,NW,317,10.1,10.5,56,0.00,,---,0.00,VWS V14.01,2013-07-14 11:23:00,
2013-07-14 05:29:00,69.4,53.6,30.03,WNW,301,11.0,11.0,57,0.00,,---,0.00,VWS V14.01,2013-07-14 11:29:00,
2013-07-14 05:34:00,69.4,54.0,30.03,NW,306,8.7,12.8,58,0.00,,---,0.00,VWS V14.01,2013-07-14 11:34:00,
2013-07-14 05:39:00,69.4,54.5,30.03,NW,309,7.6,7.6,59,0.00,,---,0.00,VWS V14.01,2013-07-14 11:39:00,
2013-07-14 05:44:00,69.4,54.5,30.03,NW,314,8.3,8.7,59,0.00,,---,0.00,VWS V14.01,2013-07-14 11:44:00,
2013-07-14 05:50:00,69.6,54.7,30.03,NW,319,11.0,11.0,59,0.00,,---,0.00,VWS V14.01,2013-07-14 11:50:00,
2013-07-14 05:55:00,69.8,54.4,30.03,NW,308,12.3,12.8,58,0.00,,---,0.00,VWS V14.01,2013-07-14 11:55:00,
2013-07-14 06:01:00,69.8,54.4,30.03,NW,322,8.3,11.0,58,0.00,,---,0.00,VWS V14.01,2013-07-14 12:01:00,
2013-07-14 06:06:00,69.8,54.4,30.03,NW,313,7.6,7.6,58,0.00,,---,0.00,VWS V14.01,2013-07-14 12:06:00,
2013-07-14 06:11:00,70.9,53.4,30.03,NW,325,6.3,8.1,54,0.00,,---,0.00,VWS V14.01,2013-07-14 12:11:00,
2013-07-14 06:16:00,71.1,53.1,30.03,NNW,333,5.4,7.6,53,0.00,,---,0.00,VWS V14.01,2013-07-14 12:16:00,
2013-07-14 06:22:00,71.1,53.1,30.03,NNW,331,6.3,6.3,53,0.00,,---,0.00,VWS V14.01,2013-07-14 12:22:00,
2013-07-14 06:27:00,71.4,53.4,30.03,NW,307,5.4,5.8,53,0.00,,---,0.00,VWS V14.01,2013-07-14 12:27:00,
2013-07-14 06:32:00,72.1,53.6,30.03,WNW,288,4.0,4.0,52,0.00,,---,0.00,VWS V14.01,2013-07-14 12:32:00,
2013-07-14 06:37:00,73.0,52.8,30.03,West,280,5.8,5.8,49,0.00,,---,0.00,VWS V14.01,2013-07-14 12:37:00,
2013-07-14 06:42:00,73.8,51.7,30.03,West,268,4.0,4.0,46,0.00,,---,0.00,VWS V14.01,2013-07-14 12:42:00,
2013-07-14 06:47:00,74.3,51.6,30.03,WNW,300,5.4,5.4,45,0.00,,---,0.00,VWS V14.01,2013-07-14 12:47:00,
2013-07-14 06:53:00,74.7,51.3,30.03,WNW,303,3.1,3.1,44,0.00,,---,0.00,VWS V14.01,2013-07-14 12:53:00,
2013-07-14 06:58:00,74.5,51.2,30.03,NW,308,5.8,5.8,44,0.00,,---,0.00,VWS V14.01,2013-07-14 12:58:00,
2013-07-14 07:04:00,74.8,51.5,30.03,NW,307,3.6,5.8,44,0.00,,---,0.00,VWS V14.01,2013-07-14 13:04:00,
2013-07-14 07:09:00,74.8,51.5,30.03,NW,307,5.4,5.4,44,0.00,,---,0.00,VWS V14.01,2013-07-14 13:09:00,
2013-07-14 07:15:00,74.7,51.3,30.03,NW,307,3.6,4.0,44,0.00,,---,0.00,VWS V14.01,2013-07-14 13:15:00,
2013-07-14 07:20:00,74.5,51.2,30.03,NNW,332,6.3,8.1,44,0.00,,---,0.00,VWS V14.01,2013-07-14 13:20:00,
2013-07-14 07:26:00,74.1,51.4,30.03,NNW,335,7.2,8.1,45,0.00,,---,0.00,VWS V14.01,2013-07-14 13:26:00,
2013-07-14 07:31:00,73.9,51.9,30.06,NNW,338,5.4,5.4,46,0.00,,---,0.00,VWS V14.01,2013-07-14 13:31:00,
2013-07-14 07:36:00,74.1,52.0,30.06,NNW,339,4.9,5.8,46,0.00,,---,0.00,VWS V14.01,2013-07-14 13:36:00,
2013-07-14 07:42:00,74.1,52.0,30.06,NNW,337,4.9,4.9,46,0.00,,---,0.00,VWS V14.01,2013-07-14 13:42:00,
2013-07-14 07:47:00,74.1,52.0,30.06,NNW,341,5.4,5.8,46,0.00,,---,0.00,VWS V14.01,2013-07-14 13:47:00,
2013-07-14 07:53:00,73.9,51.9,30.06,NNW,343,6.3,6.3,46,0.00,,---,0.00,VWS V14.01,2013-07-14 13:53:00,
2013-07-14 07:58:00,74.5,53.0,30.06,NNW,337,5.8,5.8,47,0.00,,---,0.00,VWS V14.01,2013-07-14 13:58:00,
2013-07-14 08:04:00,75.2,51.8,30.06,NNW,337,6.3,6.3,44,0.00,,---,0.00,VWS V14.01,2013-07-14 14:04:00,
2013-07-14 08:10:00,75.4,52.0,30.06,North,349,8.1,8.1,44,0.00,,---,0.00,VWS V14.01,2013-07-14 14:10:00,
2013-07-14 08:15:00,75.4,51.3,30.06,North,350,7.6,8.7,43,0.00,,---,0.00,VWS V14.01,2013-07-14 14:15:00,
2013-07-14 08:21:00,75.4,51.3,30.06,North,353,5.8,6.7,43,0.00,,---,0.00,VWS V14.01,2013-07-14 14:21:00,
2013-07-14 08:27:00,75.6,51.5,30.06,NNW,348,5.4,5.4,43,0.00,,---,0.00,VWS V14.01,2013-07-14 14:27:00,
2013-07-14 08:32:00,76.1,52.0,30.06,NNW,348,3.1,5.8,43,0.00,,---,0.00,VWS V14.01,2013-07-14 14:32:00,
2013-07-14 08:38:00,76.1,52.0,30.06,North,2,6.3,7.2,43,0.00,,---,0.00,VWS V14.01,2013-07-14 14:38:00,
2013-07-14 08:43:00,76.1,51.4,30.06,North,0,6.3,7.6,42,0.00,,---,0.00,VWS V14.01,2013-07-14 14:43:00,
2013-07-14 08:48:00,76.1,50.7,30.06,North,7,8.1,8.1,41,0.00,,---,0.00,VWS V14.01,2013-07-14 14:48:00,
2013-07-14 08:53:00,76.5,51.7,30.09,North,9,8.3,8.3,42,0.00,,---,0.00,VWS V14.01,2013-07-14 14:53:00,
2013-07-14 08:59:00,76.6,51.2,30.09,North,2,10.5,10.5,41,0.00,,---,0.00,VWS V14.01,2013-07-14 14:59:00,
2013-07-14 09:04:00,77.2,51.0,30.09,NNW,343,5.4,8.1,40,0.00,,---,0.00,VWS V14.01,2013-07-14 15:04:00,
2013-07-14 09:10:00,77.4,51.2,30.06,North,11,5.4,10.1,40,0.00,,---,0.00,VWS V14.01,2013-07-14 15:10:00,
2013-07-14 09:16:00,77.5,51.3,30.06,North,7,8.1,8.3,40,0.00,,---,0.00,VWS V14.01,2013-07-14 15:16:00,
2013-07-14 09:21:00,77.7,51.5,30.06,NNE,12,4.9,4.9,40,0.00,,---,0.00,VWS V14.01,2013-07-14 15:21:00,
2013-07-14 09:26:00,78.1,51.8,30.06,North,10,8.3,8.3,40,0.00,,---,0.00,VWS V14.01,2013-07-14 15:26:00,
2013-07-14 09:31:00,78.3,52.0,30.06,NNW,345,5.8,8.7,40,0.00,,---,0.00,VWS V14.01,2013-07-14 15:31:00,
2013-07-14 09:37:00,78.3,52.0,30.06,NNE,28,7.6,8.3,40,0.00,,---,0.00,VWS V14.01,2013-07-14 15:37:00,
2013-07-14 09:42:00,78.6,52.3,30.06,North,8,7.6,7.6,40,0.00,,---,0.00,VWS V14.01,2013-07-14 15:42:00,
2013-07-14 09:48:00,79.0,52.6,30.06,North,357,7.6,7.6,40,0.00,,---,0.00,VWS V14.01,2013-07-14 15:48:00,
2013-07-14 09:53:00,79.2,52.8,30.06,North,8,10.5,11.0,40,0.00,,---,0.00,VWS V14.01,2013-07-14 15:53:00,
2013-07-14 09:59:00,79.2,52.8,30.06,NE,35,10.1,10.1,40,0.00,,---,0.00,VWS V14.01,2013-07-14 15:59:00,
2013-07-14 10:04:00,79.5,53.1,30.06,North,0,9.2,9.2,40,0.00,,---,0.00,VWS V14.01,2013-07-14 16:04:00,
2013-07-14 10:10:00,80.2,53.8,30.06,North,4,10.1,10.1,40,0.00,,---,0.00,VWS V14.01,2013-07-14 16:10:00,
2013-07-14 10:16:00,80.8,53.5,30.06,NNE,12,12.8,12.8,39,0.00,,---,0.00,VWS V14.01,2013-07-14 16:16:00,
2013-07-14 10:21:00,81.1,53.2,30.06,North,357,11.0,11.0,38,0.00,,---,0.00,VWS V14.01,2013-07-14 16:21:00,
2013-07-14 10:27:00,81.1,53.2,30.06,NNE,17,10.5,11.0,38,0.00,,---,0.00,VWS V14.01,2013-07-14 16:27:00,
2013-07-14 10:33:00,81.3,52.6,30.06,NNE,15,8.3,8.3,37,0.00,,---,0.00,VWS V14.01,2013-07-14 16:33:00,
2013-07-14 10:39:00,81.3,53.3,30.06,North,0,8.3,8.3,38,0.00,,---,0.00,VWS V14.01,2013-07-14 16:39:00,
2013-07-14 10:45:00,81.5,52.7,30.06,North,357,8.1,10.5,37,0.00,,---,0.00,VWS V14.01,2013-07-14 16:45:00,
2013-07-14 10:51:00,81.7,52.9,30.06,North,353,8.1,10.5,37,0.00,,---,0.00,VWS V14.01,2013-07-14 16:51:00,
2013-07-14 10:56:00,81.7,52.9,30.06,North,4,11.0,11.0,37,0.00,,---,0.00,VWS V14.01,2013-07-14 16:56:00,
2013-07-14 11:01:00,81.9,53.1,30.06,North,2,11.9,11.9,37,0.00,,---,0.00,VWS V14.01,2013-07-14 17:01:00,
2013-07-14 11:06:00,81.9,53.1,30.06,North,357,11.0,11.0,37,0.00,,---,0.00,VWS V14.01,2013-07-14 17:06:00,
2013-07-14 11:12:00,82.0,52.5,30.06,North,2,12.8,12.8,36,0.00,,---,0.00,VWS V14.01,2013-07-14 17:12:00,
2013-07-14 11:17:00,82.0,53.2,30.06,North,7,10.5,11.9,37,0.00,,---,0.00,VWS V14.01,2013-07-14 17:17:00,
2013-07-14 11:23:00,82.6,53.0,30.06,NNE,19,10.5,10.5,36,0.00,,---,0.00,VWS V14.01,2013-07-14 17:23:00,
2013-07-14 11:28:00,82.8,52.3,30.06,North,9,11.0,11.0,35,0.00,,---,0.00,VWS V14.01,2013-07-14 17:28:00,
2013-07-14 11:34:00,82.8,52.3,30.06,NNW,346,8.7,11.4,35,0.00,,---,0.00,VWS V14.01,2013-07-14 17:34:00,
2013-07-14 11:40:00,82.4,52.0,30.06,North,353,10.5,12.3,35,0.00,,---,0.00,VWS V14.01,2013-07-14 17:40:00,
2013-07-14 11:45:00,82.4,52.0,30.06,North,0,8.3,8.3,35,0.00,,---,0.00,VWS V14.01,2013-07-14 17:45:00,
2013-07-14 11:51:00,82.2,52.6,30.06,NNW,343,5.8,10.5,36,0.00,,---,0.00,VWS V14.01,2013-07-14 17:51:00,
2013-07-14 11:56:00,82.2,52.6,30.06,North,349,11.0,12.3,36,0.00,,---,0.00,VWS V14.01,2013-07-14 17:56:00,
2013-07-14 12:02:00,82.0,53.2,30.06,North,7,15.9,15.9,37,0.00,,---,0.00,VWS V14.01,2013-07-14 18:02:00,
2013-07-14 12:08:00,82.2,52.6,30.06,NNW,346,8.7,8.7,36,0.00,,---,0.00,VWS V14.01,2013-07-14 18:08:00,
2013-07-14 12:13:00,82.4,52.0,30.06,NNW,339,12.3,12.3,35,0.00,,---,0.00,VWS V14.01,2013-07-14 18:13:00,
2013-07-14 12:19:00,82.4,52.0,30.06,North,353,11.0,11.0,35,0.00,,---,0.00,VWS V14.01,2013-07-14 18:19:00,
2013-07-14 12:24:00,82.4,52.8,30.06,North,353,11.9,11.9,36,0.00,,---,0.00,VWS V14.01,2013-07-14 18:24:00,
2013-07-14 12:30:00,82.4,52.0,30.06,NW,325,10.1,13.2,35,0.00,,---,0.00,VWS V14.01,2013-07-14 18:30:00,
2013-07-14 12:36:00,82.4,52.0,30.06,North,357,12.3,12.3,35,0.00,,---,0.00,VWS V14.01,2013-07-14 18:36:00,
2013-07-14 12:41:00,82.4,52.0,30.06,NNW,348,8.1,15.9,35,0.00,,---,0.00,VWS V14.01,2013-07-14 18:41:00,
2013-07-14 12:47:00,82.2,51.9,30.06,NNE,21,13.2,15.4,35,0.00,,---,0.00,VWS V14.01,2013-07-14 18:47:00,
2013-07-14 12:52:00,82.4,52.0,30.06,North,357,8.7,8.7,35,0.00,,---,0.00,VWS V14.01,2013-07-14 18:52:00,
2013-07-14 12:58:00,83.1,51.9,30.06,NNW,345,12.8,12.8,34,0.00,,---,0.00,VWS V14.01,2013-07-14 18:58:00,
2013-07-14 13:04:00,83.7,51.5,30.06,North,0,17.9,17.9,33,0.00,,---,0.00,VWS V14.01,2013-07-14 19:04:00,
2013-07-14 13:09:00,83.7,51.5,30.06,North,3,13.2,17.4,33,0.00,,---,0.00,VWS V14.01,2013-07-14 19:09:00,
2013-07-14 13:15:00,82.9,51.7,30.06,North,0,12.8,17.0,34,0.00,,---,0.00,VWS V14.01,2013-07-14 19:15:00,
2013-07-14 13:21:00,82.6,51.4,30.06,North,3,16.8,16.8,34,0.00,,---,0.00,VWS V14.01,2013-07-14 19:21:00,
2013-07-14 13:26:00,82.0,51.7,30.06,North,4,18.8,22.8,35,0.00,,---,0.00,VWS V14.01,2013-07-14 19:26:00,
2013-07-14 13:32:00,81.7,52.2,30.06,North,357,14.1,17.9,36,0.00,,---,0.00,VWS V14.01,2013-07-14 19:32:00,
2013-07-14 13:37:00,81.5,52.7,30.06,North,357,16.3,17.4,37,0.00,,---,0.00,VWS V14.01,2013-07-14 19:37:00,
2013-07-14 13:43:00,82.0,53.2,30.06,North,357,18.3,18.3,37,0.00,,---,0.00,VWS V14.01,2013-07-14 19:43:00,
2013-07-14 13:49:00,82.4,52.8,30.06,North,357,14.1,21.0,36,0.00,,---,0.00,VWS V14.01,2013-07-14 19:49:00,
2013-07-14 13:54:00,82.4,52.0,30.06,NNE,16,18.8,18.8,35,0.00,,---,0.00,VWS V14.01,2013-07-14 19:54:00,
2013-07-14 13:59:00,82.2,52.6,30.06,North,9,18.3,18.3,36,0.00,,---,0.00,VWS V14.01,2013-07-14 19:59:00,
2013-07-14 14:04:00,82.0,54.0,30.06,NNW,340,15.0,16.8,38,0.00,,---,0.00,VWS V14.01,2013-07-14 20:04:00,
2013-07-14 14:10:00,81.9,54.5,30.06,NNW,337,14.1,17.4,39,0.00,,---,0.00,VWS V14.01,2013-07-14 20:10:00,
2013-07-14 14:15:00,82.4,54.3,30.06,NW,323,15.0,17.0,38,0.00,,---,0.00,VWS V14.01,2013-07-14 20:15:00,
2013-07-14 14:20:00,82.6,53.0,30.06,North,7,16.3,16.3,36,0.00,,---,0.00,VWS V14.01,2013-07-14 20:20:00,
2013-07-14 14:25:00,82.2,53.4,30.06,North,357,12.3,20.6,37,0.00,,---,0.00,VWS V14.01,2013-07-14 20:25:00,
2013-07-14 14:30:00,82.8,53.1,30.06,North,3,15.4,15.4,36,0.00,,---,0.00,VWS V14.01,2013-07-14 20:30:00,
2013-07-14 14:36:00,82.8,52.3,30.06,North,357,17.4,17.4,35,0.00,,---,0.00,VWS V14.01,2013-07-14 20:36:00,
2013-07-14 14:41:00,82.9,52.5,30.06,NNE,15,13.2,13.2,35,0.00,,---,0.00,VWS V14.01,2013-07-14 20:41:00,
2013-07-14 14:46:00,82.9,52.5,30.06,NNW,343,13.2,13.2,35,0.00,,---,0.00,VWS V14.01,2013-07-14 20:46:00,
2013-07-14 14:52:00,82.6,52.2,30.06,NNW,348,13.2,15.9,35,0.00,,---,0.00,VWS V14.01,2013-07-14 20:52:00,
2013-07-14 14:57:00,82.2,52.6,30.06,North,0,10.5,15.4,36,0.00,,---,0.00,VWS V14.01,2013-07-14 20:57:00,
2013-07-14 15:03:00,81.5,52.7,30.06,North,0,12.8,13.2,37,0.00,,---,0.00,VWS V14.01,2013-07-14 21:03:00,
2013-07-14 15:08:00,81.1,53.2,30.06,North,357,18.8,18.8,38,0.00,,---,0.00,VWS V14.01,2013-07-14 21:08:00,
2013-07-14 15:14:00,80.8,53.5,30.06,North,0,16.8,16.8,39,0.00,,---,0.00,VWS V14.01,2013-07-14 21:14:00,
2013-07-14 15:20:00,80.4,53.9,30.06,North,357,16.3,16.3,40,0.00,,---,0.00,VWS V14.01,2013-07-14 21:20:00,
2013-07-14 15:25:00,80.2,54.4,30.06,NNW,336,7.6,12.8,41,0.00,,---,0.00,VWS V14.01,2013-07-14 21:25:00,
2013-07-14 15:31:00,79.9,54.1,30.06,North,357,8.1,12.8,41,0.00,,---,0.00,VWS V14.01,2013-07-14 21:31:00,
2013-07-14 15:36:00,78.8,53.1,30.06,NNE,32,24.2,24.2,41,0.00,,---,0.00,VWS V14.01,2013-07-14 21:36:00,
2013-07-14 15:42:00,74.8,52.1,30.06,North,3,17.4,21.5,45,0.00,,---,0.00,VWS V14.01,2013-07-14 21:42:00,
2013-07-14 15:47:00,72.9,53.7,30.06,NNE,24,20.6,20.6,51,0.00,,---,0.00,VWS V14.01,2013-07-14 21:47:00,
2013-07-14 15:53:00,72.0,57.3,30.09,North,357,17.9,22.8,60,0.51,,---,0.51,VWS V14.01,2013-07-14 21:53:00,
2013-07-14 15:59:00,71.8,58.5,30.09,NNE,21,15.9,15.9,63,0.51,,---,0.51,VWS V14.01,2013-07-14 21:59:00,
2013-07-14 16:04:00,71.4,59.0,30.09,NE,44,17.0,17.0,65,1.10,,---,1.10,VWS V14.01,2013-07-14 22:04:00,
2013-07-14 16:10:00,69.6,57.3,30.09,East,92,22.4,22.4,65,1.10,,---,1.10,VWS V14.01,2013-07-14 22:10:00,
2013-07-14 16:15:00,69.6,59.0,30.09,South,176,10.5,13.2,69,1.10,,---,1.10,VWS V14.01,2013-07-14 22:15:00,
2013-07-14 16:21:00,70.0,59.0,30.09,ESE,118,11.0,22.4,68,2.01,,---,2.01,VWS V14.01,2013-07-14 22:21:00,
2013-07-14 16:26:00,69.3,57.8,30.12,SSE,167,7.6,7.6,67,2.20,,---,2.20,VWS V14.01,2013-07-14 22:26:00,
2013-07-14 16:31:00,68.9,57.5,30.12,WSW,257,3.1,4.0,67,2.32,,---,2.32,VWS V14.01,2013-07-14 22:31:00,
2013-07-14 16:36:00,68.4,57.4,30.12,West,277,4.9,4.9,68,2.56,,---,2.56,VWS V14.01,2013-07-14 22:36:00,
2013-07-14 16:42:00,68.4,57.8,30.12,North,10,15.0,15.0,69,2.56,,---,2.56,VWS V14.01,2013-07-14 22:42:00,
2013-07-14 16:48:00,68.4,58.2,30.12,NNW,330,3.1,4.5,70,3.07,,---,3.07,VWS V14.01,2013-07-14 22:48:00,
2013-07-14 16:53:00,68.7,59.0,30.12,NNW,329,0.0,0.0,71,2.87,,---,3.39,VWS V14.01,2013-07-14 22:53:00,
2013-07-14 16:59:00,68.9,59.1,30.12,North,357,5.4,5.8,71,2.99,,---,3.50,VWS V14.01,2013-07-14 22:59:00,
2013-07-14 17:05:00,68.7,59.0,30.12,NNW,343,5.4,5.4,71,2.44,,---,3.54,VWS V14.01,2013-07-14 23:05:00,
2013-07-14 17:10:00,68.4,58.6,30.12,NW,319,5.8,5.8,71,2.52,,---,3.62,VWS V14.01,2013-07-14 23:10:00,
2013-07-14 17:16:00,68.4,59.0,30.12,NNW,328,6.3,6.3,72,2.60,,---,3.70,VWS V14.01,2013-07-14 23:16:00,
2013-07-14 17:21:00,68.4,59.4,30.12,North,1,7.6,10.5,73,1.69,,---,3.70,VWS V14.01,2013-07-14 23:21:00,
2013-07-14 17:27:00,68.2,59.2,30.12,North,357,7.6,7.6,73,1.54,,---,3.74,VWS V14.01,2013-07-14 23:27:00,
2013-07-14 17:33:00,68.2,59.2,30.12,North,357,7.6,10.5,73,1.42,,---,3.78,VWS V14.01,2013-07-14 23:33:00,
2013-07-14 17:38:00,68.2,59.2,30.12,NNE,12,11.9,13.2,73,1.26,,---,3.82,VWS V14.01,2013-07-14 23:38:00,
2013-07-14 17:44:00,67.8,58.5,30.12,North,5,10.1,10.1,72,0.79,,---,3.82,VWS V14.01,2013-07-14 23:44:00,
2013-07-14 17:49:00,67.8,58.5,30.12,NNE,26,10.5,10.5,72,0.75,,---,3.82,VWS V14.01,2013-07-14 23:49:00,
2013-07-14 17:54:00,68.5,59.5,30.12,NE,36,11.0,13.2,73,0.47,,---,3.86,VWS V14.01,2013-07-14 23:54:00,
2013-07-14 17:59:00,69.1,60.5,30.12,NNE,24,12.8,13.2,74,0.43,,---,3.94,VWS V14.01,2013-07-14 23:59:00,
2013-07-14 18:05:00,69.3,61.0,30.12,ENE,71,10.1,12.3,75,0.67,,---,4.21,VWS V14.01,2013-07-15 00:05:00,
2013-07-14 18:10:00,69.1,60.8,30.12,NE,44,5.8,8.7,75,0.79,,---,4.33,VWS V14.01,2013-07-15 00:10:00,
2013-07-14 18:16:00,69.3,61.4,30.12,NE,35,8.7,8.7,76,0.71,,---,4.33,VWS V14.01,2013-07-15 00:16:00,
2013-07-14 18:22:00,69.4,61.5,30.15,NNE,21,7.2,7.6,76,0.63,,---,4.33,VWS V14.01,2013-07-15 00:22:00,
2013-07-14 18:27:00,69.4,61.2,30.15,NNE,12,6.3,6.3,75,0.59,,---,4.33,VWS V14.01,2013-07-15 00:27:00,
2013-07-14 18:33:00,69.6,61.3,30.15,NNE,19,5.8,5.8,75,0.55,,---,4.33,VWS V14.01,2013-07-15 00:33:00,
2013-07-14 18:38:00,69.6,61.0,30.12,North,11,8.1,8.3,74,0.51,,---,4.33,VWS V14.01,2013-07-15 00:38:00,
2013-07-14 18:44:00,69.6,61.0,30.12,North,2,8.3,8.3,74,0.51,,---,4.33,VWS V14.01,2013-07-15 00:44:00,
2013-07-14 18:49:00,69.8,60.8,30.12,NNE,12,8.3,10.5,73,0.51,,---,4.33,VWS V14.01,2013-07-15 00:49:00,
2013-07-14 18:55:00,70.0,60.9,30.15,North,4,8.7,10.1,73,0.47,,---,4.33,VWS V14.01,2013-07-15 00:55:00,
2013-07-14 19:00:00,70.2,61.1,30.15,NNE,16,10.5,10.5,73,0.39,,---,4.33,VWS V14.01,2013-07-15 01:00:00,
2013-07-14 19:05:00,70.3,61.3,30.15,NNE,22,8.1,8.3,73,0.12,,---,4.33,VWS V14.01,2013-07-15 01:05:00,
2013-07-14 19:11:00,70.5,61.8,30.15,NNE,23,8.3,10.1,74,0.00,,---,4.33,VWS V14.01,2013-07-15 01:11:00,
2013-07-14 19:16:00,70.7,61.6,30.15,NNE,22,8.1,8.7,73,0.00,,---,4.33,VWS V14.01,2013-07-15 01:16:00,
2013-07-14 19:22:00,70.7,61.6,30.15,NE,35,10.1,11.4,73,0.00,,---,4.33,VWS V14.01,2013-07-15 01:22:00,
2013-07-14 19:27:00,70.7,62.0,30.15,NE,42,11.0,11.0,74,0.00,,---,4.33,VWS V14.01,2013-07-15 01:27:00,
2013-07-14 19:33:00,70.7,62.4,30.15,NE,56,8.1,8.7,75,0.00,,---,4.33,VWS V14.01,2013-07-15 01:33:00,
2013-07-14 19:39:00,70.5,62.2,30.15,ENE,61,8.7,8.7,75,0.00,,---,4.33,VWS V14.01,2013-07-15 01:39:00,
2013-07-14 19:44:00,70.3,62.4,30.15,ENE,67,8.7,9.2,76,0.00,,---,4.33,VWS V14.01,2013-07-15 01:44:00,
2013-07-14 19:50:00,70.5,62.6,30.15,ENE,61,10.1,10.1,76,0.00,,---,4.33,VWS V14.01,2013-07-15 01:50:00,
2013-07-14 19:56:00,70.5,62.6,30.15,East,95,13.2,15.0,76,0.00,,---,4.33,VWS V14.01,2013-07-15 01:56:00,
2013-07-14 20:01:00,70.5,62.6,30.15,ESE,118,15.0,15.0,76,0.00,,---,4.33,VWS V14.01,2013-07-15 02:01:00,
2013-07-14 20:07:00,70.3,62.4,30.15,East,93,12.8,12.8,76,0.00,,---,4.33,VWS V14.01,2013-07-15 02:07:00,
2013-07-14 20:12:00,70.2,61.9,30.15,ESE,110,13.6,13.6,75,0.00,,---,4.33,VWS V14.01,2013-07-15 02:12:00,
2013-07-14 20:18:00,69.8,61.5,30.15,ESE,107,8.3,10.1,75,0.00,,---,4.33,VWS V14.01,2013-07-15 02:18:00,
2013-07-14 20:24:00,69.6,61.3,30.15,ESE,112,12.8,12.8,75,0.00,,---,4.33,VWS V14.01,2013-07-15 02:24:00,
2013-07-14 20:29:00,69.4,61.2,30.15,ESE,102,10.1,10.1,75,0.00,,---,4.33,VWS V14.01,2013-07-15 02:29:00,
2013-07-14 20:35:00,69.3,61.0,30.15,East,91,10.1,10.1,75,0.00,,---,4.33,VWS V14.01,2013-07-15 02:35:00,
2013-07-14 20:40:00,69.3,61.0,30.15,East,84,10.1,10.1,75,0.00,,---,4.33,VWS V14.01,2013-07-15 02:40:00,
2013-07-14 20:46:00,69.1,60.8,30.15,East,98,8.1,8.7,75,0.00,,---,4.33,VWS V14.01,2013-07-15 02:46:00,
2013-07-14 20:51:00,68.9,60.7,30.15,East,90,10.1,10.1,75,0.00,,---,4.33,VWS V14.01,2013-07-15 02:51:00,
2013-07-14 20:52:00,68.9,60.7,30.15,East,86,11.4,11.4,75,0.00,,---,4.33,VWS V14.01,2013-07-15 02:52:00,
2013-07-14 20:57:00,68.9,60.7,30.15,East,83,10.1,12.8,75,0.00,,---,4.33,VWS V14.01,2013-07-15 02:57:00,
2013-07-14 21:03:00,68.5,60.3,30.15,East,89,11.0,13.2,75,0.00,,---,4.33,VWS V14.01,2013-07-15 03:03:00,
2013-07-14 21:08:00,68.5,59.9,30.15,East,95,13.2,13.2,74,0.00,,---,4.33,VWS V14.01,2013-07-15 03:08:00,
2013-07-14 21:14:00,68.4,59.8,30.15,East,90,8.1,9.2,74,0.00,,---,4.33,VWS V14.01,2013-07-15 03:14:00,
2013-07-14 21:20:00,68.2,59.6,30.15,East,101,12.8,12.8,74,0.00,,---,4.33,VWS V14.01,2013-07-15 03:20:00,
2013-07-14 21:25:00,68.2,59.6,30.15,East,97,8.3,10.1,74,0.00,,---,4.33,VWS V14.01,2013-07-15 03:25:00,
2013-07-14 21:31:00,68.0,59.4,30.18,ESE,104,8.7,11.4,74,0.00,,---,4.33,VWS V14.01,2013-07-15 03:31:00,
2013-07-14 21:36:00,68.0,59.4,30.18,East,101,11.0,11.0,74,0.00,,---,4.33,VWS V14.01,2013-07-15 03:36:00,
2013-07-14 21:42:00,67.8,59.2,30.18,ESE,115,11.0,13.6,74,0.00,,---,4.33,VWS V14.01,2013-07-15 03:42:00,
2013-07-14 21:47:00,67.8,59.2,30.18,ESE,109,12.3,12.8,74,0.00,,---,4.33,VWS V14.01,2013-07-15 03:47:00,
2013-07-14 21:52:00,67.8,59.2,30.18,ESE,109,12.8,12.8,74,0.00,,---,4.33,VWS V14.01,2013-07-15 03:52:00,
2013-07-14 21:57:00,67.8,59.2,30.18,ESE,113,12.8,13.2,74,0.00,,---,4.33,VWS V14.01,2013-07-15 03:57:00,
2013-07-14 22:01:00,67.8,59.2,30.18,ESE,112,12.3,12.3,74,0.00,,---,4.33,VWS V14.01,2013-07-15 04:01:00,
2013-07-14 22:03:00,68.0,59.4,30.18,ESE,119,12.8,12.8,74,0.00,,---,4.33,VWS V14.01,2013-07-15 04:03:00,
2013-07-14 22:04:00,67.8,59.2,30.18,ESE,112,12.3,12.8,74,0.00,,---,4.33,VWS V14.01,2013-07-15 04:04:00,
2013-07-14 22:07:00,68.0,59.4,30.21,ESE,114,9.6,11.9,74,0.00,,---,4.33,VWS V14.01,2013-07-15 04:07:00,
2013-07-14 22:09:00,68.0,59.4,30.21,ESE,114,10.5,10.5,74,0.00,,---,4.33,VWS V14.01,2013-07-15 04:09:00,
2013-07-14 22:14:00,68.0,59.4,30.21,ESE,104,8.3,10.5,74,0.00,,---,4.33,VWS V14.01,2013-07-15 04:14:00,
2013-07-14 22:20:00,68.0,59.4,30.21,ESE,123,11.0,13.2,74,0.00,,---,4.33,VWS V14.01,2013-07-15 04:20:00,
2013-07-14 22:25:00,68.0,59.4,30.21,SE,125,12.8,13.2,74,0.00,,---,4.33,VWS V14.01,2013-07-15 04:25:00,
2013-07-14 22:31:00,68.0,59.4,30.21,SE,129,12.8,12.8,74,0.00,,---,4.33,VWS V14.01,2013-07-15 04:31:00,
2013-07-14 22:37:00,67.8,59.2,30.18,SE,128,11.0,13.2,74,0.00,,---,4.33,VWS V14.01,2013-07-15 04:37:00,
2013-07-14 22:42:00,67.8,58.9,30.18,SE,129,10.5,13.2,73,0.00,,---,4.33,VWS V14.01,2013-07-15 04:42:00,
2013-07-14 22:48:00,67.8,58.9,30.18,SE,128,8.7,12.3,73,0.00,,---,4.33,VWS V14.01,2013-07-15 04:48:00,
2013-07-14 22:53:00,67.8,58.9,30.18,SE,127,10.5,10.5,73,0.00,,---,4.33,VWS V14.01,2013-07-15 04:53:00,
2013-07-14 22:59:00,67.8,58.9,30.21,SE,134,8.3,8.3,73,0.00,,---,4.33,VWS V14.01,2013-07-15 04:59:00,
2013-07-14 23:05:00,67.8,58.9,30.21,ESE,123,8.7,10.1,73,0.00,,---,4.33,VWS V14.01,2013-07-15 05:05:00,
2013-07-14 23:10:00,67.8,58.9,30.21,ESE,117,10.5,11.9,73,0.00,,---,4.33,VWS V14.01,2013-07-15 05:10:00,
2013-07-14 23:15:00,67.8,58.9,30.21,ESE,116,10.1,10.1,73,0.00,,---,4.33,VWS V14.01,2013-07-15 05:15:00,
2013-07-14 23:21:00,67.8,58.9,30.21,ESE,123,10.5,10.5,73,0.00,,---,4.33,VWS V14.01,2013-07-15 05:21:00,
2013-07-14 23:27:00,67.6,58.3,30.21,ESE,112,12.8,12.8,72,0.00,,---,4.33,VWS V14.01,2013-07-15 05:27:00,
2013-07-14 23:32:00,67.6,58.3,30.21,SE,128,13.2,14.1,72,0.00,,---,4.33,VWS V14.01,2013-07-15 05:32:00,
2013-07-14 23:38:00,67.6,58.3,30.21,SE,126,13.2,13.2,72,0.00,,---,4.33,VWS V14.01,2013-07-15 05:38:00,
2013-07-14 23:43:00,67.6,58.3,30.21,SE,130,11.9,11.9,72,0.00,,---,4.33,VWS V14.01,2013-07-15 05:43:00,
2013-07-14 23:48:00,67.5,58.1,30.21,SE,129,12.8,12.8,72,0.00,,---,4.33,VWS V14.01,2013-07-15 05:48:00,
2013-07-14 23:53:00,67.5,58.1,30.21,SE,130,11.9,14.5,72,0.00,,---,4.33,VWS V14.01,2013-07-15 05:53:00,
2013-07-14 23:59:00,67.5,58.1,30.21,ESE,123,11.9,15.0,72,0.00,,---,4.33,VWS V14.01,2013-07-15 05:59:00,